createdAt,value
2018-04-25T00:00:45.677Z,13.70
2018-04-25T00:03:12.749Z,13.70
2018-04-25T00:05:39.789Z,13.70
2018-04-25T00:08:06.823Z,13.70
2018-04-25T00:10:34.614Z,13.60
2018-04-25T00:13:01.649Z,13.60
2018-04-25T00:15:29.467Z,13.50
2018-04-25T00:17:56.524Z,13.50
2018-04-25T00:20:23.576Z,13.50
2018-04-25T00:22:50.620Z,13.50
2018-04-25T00:25:17.652Z,13.50
2018-04-25T00:27:44.685Z,13.50
2018-04-25T00:30:11.708Z,13.50
2018-04-25T00:32:38.780Z,13.50
2018-04-25T00:35:05.804Z,13.50
2018-04-25T00:37:32.816Z,13.50
2018-04-25T00:40:00.596Z,13.40
2018-04-25T00:42:27.613Z,13.40
2018-04-25T00:44:54.701Z,13.40
2018-04-25T00:47:21.767Z,13.40
2018-04-25T00:49:48.836Z,13.30
2018-04-25T00:52:15.915Z,13.30
2018-04-25T00:54:43.716Z,13.30
2018-04-25T00:57:10.808Z,13.30
2018-04-25T00:59:37.879Z,13.30
2018-04-25T01:02:05.676Z,13.20
2018-04-25T01:04:32.753Z,13.20
2018-04-25T01:06:59.841Z,13.30
2018-04-25T01:09:27.894Z,13.20
2018-04-25T01:11:55.073Z,13.20
2018-04-25T01:14:22.037Z,13.30
2018-04-25T01:16:49.105Z,13.30
2018-04-25T01:19:16.204Z,13.30
2018-04-25T01:21:43.348Z,13.20
2018-04-25T01:24:10.425Z,13.20
2018-04-25T01:26:37.500Z,13.30
2018-04-25T01:29:06.201Z,13.30
2018-04-25T01:34:36.343Z,13.30
2018-04-25T01:37:17.949Z,13.20
2018-04-25T01:40:10.633Z,13.20
2018-04-25T01:45:48.693Z,13.20
2018-04-25T01:51:45.735Z,13.20
2018-04-25T01:54:31.264Z,13.20
2018-04-25T01:57:16.811Z,13.20
2018-04-25T02:00:02.389Z,13.20
2018-04-25T02:02:29.103Z,13.10
2018-04-25T02:04:56.867Z,13.00
2018-04-25T02:07:24.608Z,13.00
2018-04-25T02:09:51.637Z,13.00
2018-04-25T02:12:18.671Z,13.00
2018-04-25T02:14:45.737Z,13.00
2018-04-25T02:17:12.755Z,12.90
2018-04-25T02:19:39.800Z,12.90
2018-04-25T02:22:06.827Z,12.90
2018-04-25T02:24:34.589Z,12.90
2018-04-25T02:27:01.677Z,12.80
2018-04-25T02:29:28.655Z,12.80
2018-04-25T02:31:55.780Z,12.80
2018-04-25T02:34:22.784Z,12.80
2018-04-25T02:36:50.524Z,12.60
2018-04-25T02:39:18.297Z,12.60
2018-04-25T02:41:46.046Z,12.60
2018-04-25T02:44:13.815Z,12.60
2018-04-25T02:46:40.836Z,12.60
2018-04-25T02:49:07.846Z,12.60
2018-04-25T02:51:34.878Z,12.60
2018-04-25T02:54:01.893Z,12.60
2018-04-25T02:56:28.893Z,12.60
2018-04-25T02:58:55.982Z,12.50
2018-04-25T03:01:22.938Z,12.50
2018-04-25T03:03:49.968Z,12.50
2018-04-25T03:06:16.982Z,12.50
2018-04-25T03:08:44.009Z,12.60
2018-04-25T03:11:11.736Z,12.50
2018-04-25T03:13:38.737Z,12.50
2018-04-25T03:16:05.798Z,12.50
2018-04-25T03:18:32.840Z,12.50
2018-04-25T03:20:59.849Z,12.50
2018-04-25T03:23:26.886Z,12.40
2018-04-25T03:25:53.912Z,12.40
2018-04-25T03:28:20.896Z,12.30
2018-04-25T03:30:47.884Z,12.30
2018-04-25T03:33:14.912Z,12.30
2018-04-25T03:35:41.920Z,12.30
2018-04-25T03:38:09.693Z,12.30
2018-04-25T03:40:37.440Z,12.30
2018-04-25T03:43:04.444Z,12.20
2018-04-25T03:45:31.494Z,12.30
2018-04-25T03:47:58.513Z,12.20
2018-04-25T03:50:25.552Z,12.20
2018-04-25T03:52:53.292Z,12.20
2018-04-25T03:55:20.278Z,12.20
2018-04-25T03:57:47.280Z,12.20
2018-04-25T04:00:14.302Z,12.20
2018-04-25T04:02:41.329Z,12.20
2018-04-25T04:05:08.344Z,12.20
2018-04-25T04:07:35.411Z,12.20
2018-04-25T04:10:02.514Z,12.20
2018-04-25T04:12:29.533Z,12.20
2018-04-25T04:14:56.535Z,12.20
2018-04-25T04:17:24.281Z,12.30
2018-04-25T04:19:53.044Z,12.30
2018-04-25T04:22:21.095Z,12.30
2018-04-25T04:24:48.158Z,12.30
2018-04-25T04:27:15.159Z,12.30
2018-04-25T04:29:42.171Z,12.30
2018-04-25T04:32:09.262Z,12.30
2018-04-25T04:34:37.046Z,12.30
2018-04-25T04:37:04.065Z,12.30
2018-04-25T04:39:31.308Z,12.30
2018-04-25T04:41:58.327Z,12.40
2018-04-25T04:44:25.348Z,12.40
2018-04-25T04:46:52.361Z,12.40
2018-04-25T04:49:19.352Z,12.50
2018-04-25T04:51:46.368Z,12.60
2018-04-25T04:54:14.100Z,12.60
2018-04-25T04:56:41.072Z,12.60
2018-04-25T04:59:08.075Z,12.70
2018-04-25T05:01:35.081Z,12.70
2018-04-25T05:04:02.844Z,12.80
2018-04-25T05:06:29.876Z,12.80
2018-04-25T05:08:56.843Z,12.80
2018-04-25T05:11:24.601Z,13.00
2018-04-25T05:13:51.612Z,13.00
2018-04-25T05:16:18.644Z,13.10
2018-04-25T05:18:45.649Z,13.10
2018-04-25T05:21:12.663Z,13.20
2018-04-25T05:23:39.668Z,13.20
2018-04-25T05:26:06.697Z,13.30
2018-04-25T05:28:33.700Z,13.40
2018-04-25T05:31:00.708Z,13.50
2018-04-25T05:33:27.740Z,13.60
2018-04-25T05:35:55.529Z,13.80
2018-04-25T05:38:22.495Z,13.80
2018-04-25T05:40:49.536Z,13.90
2018-04-25T05:43:16.515Z,14.10
2018-04-25T05:45:43.531Z,14.20
2018-04-25T05:48:10.560Z,14.30
2018-04-25T05:50:37.600Z,14.30
2018-04-25T05:53:04.624Z,14.40
2018-04-25T05:55:32.346Z,14.40
2018-04-25T05:58:00.240Z,14.50
2018-04-25T06:00:27.164Z,14.40
2018-04-25T06:02:54.189Z,14.50
2018-04-25T06:05:21.208Z,14.60
2018-04-25T06:07:48.244Z,14.60
2018-04-25T06:10:15.313Z,14.70
2018-04-25T06:12:43.169Z,14.90
2018-04-25T06:15:10.324Z,14.80
2018-04-25T06:17:38.128Z,14.90
2018-04-25T06:20:05.172Z,14.90
2018-04-25T06:22:32.277Z,15.00
2018-04-25T06:24:59.305Z,15.10
2018-04-25T06:27:26.329Z,15.10
2018-04-25T06:29:54.090Z,15.30
2018-04-25T06:32:21.130Z,15.30
2018-04-25T06:34:48.129Z,15.30
2018-04-25T06:37:15.188Z,15.30
2018-04-25T06:39:42.338Z,15.40
2018-04-25T06:42:09.461Z,15.40
2018-04-25T06:44:36.520Z,15.50
2018-04-25T06:47:03.588Z,15.60
2018-04-25T06:49:30.600Z,15.60
2018-04-25T06:51:57.661Z,15.60
2018-04-25T06:54:24.672Z,15.70
2018-04-25T06:56:51.871Z,15.70
2018-04-25T06:59:18.769Z,15.80
2018-04-25T07:01:45.815Z,15.90
2018-04-25T07:04:12.852Z,15.90
2018-04-25T07:06:39.864Z,16.00
2018-04-25T07:09:06.900Z,16.00
2018-04-25T07:11:33.899Z,16.10
2018-04-25T07:14:02.236Z,16.20
2018-04-25T07:16:29.376Z,16.20
2018-04-25T07:18:56.500Z,16.30
2018-04-25T07:21:24.300Z,16.40
2018-04-25T07:23:51.403Z,16.40
2018-04-25T07:26:19.171Z,16.50
2018-04-25T07:28:46.445Z,16.50
2018-04-25T07:31:13.525Z,16.60
2018-04-25T07:33:40.536Z,16.70
2018-04-25T07:36:07.582Z,16.80
2018-04-25T07:38:34.772Z,16.90
2018-04-25T07:41:01.853Z,17.00
2018-04-25T07:43:28.833Z,17.10
2018-04-25T07:45:56.088Z,17.20
2018-04-25T07:48:23.344Z,17.30
2018-04-25T07:50:51.156Z,17.40
2018-04-25T07:53:18.388Z,17.40
2018-04-25T07:55:45.841Z,17.50
2018-04-25T07:58:13.804Z,17.60
2018-04-25T08:00:40.969Z,17.60
2018-04-25T08:03:08.857Z,17.70
2018-04-25T08:05:35.976Z,17.70
2018-04-25T08:08:03.107Z,17.80
2018-04-25T08:10:30.124Z,17.90
2018-04-25T08:13:15.574Z,18.00
2018-04-25T08:16:01.220Z,18.00
2018-04-25T08:18:46.903Z,18.20
2018-04-25T08:21:26.369Z,18.30
2018-04-25T08:23:53.695Z,18.40
2018-04-25T08:26:20.876Z,18.40
2018-04-25T08:28:47.865Z,18.50
2018-04-25T08:31:14.904Z,18.60
2018-04-25T08:33:42.639Z,18.70
2018-04-25T08:36:09.676Z,18.70
2018-04-25T08:38:36.861Z,18.80
2018-04-25T08:41:03.921Z,18.80
2018-04-25T08:43:30.940Z,18.80
2018-04-25T08:45:58.201Z,18.90
2018-04-25T08:48:25.506Z,18.90
2018-04-25T08:50:52.656Z,19.00
2018-04-25T08:53:19.821Z,19.00
2018-04-25T08:55:46.944Z,19.10
2018-04-25T08:58:14.136Z,19.10
2018-04-25T09:00:41.413Z,19.10
2018-04-25T09:03:08.448Z,19.20
2018-04-25T09:05:36.211Z,19.30
2018-04-25T09:08:03.207Z,19.30
2018-04-25T09:10:30.471Z,19.40
2018-04-25T09:12:57.615Z,19.50
2018-04-25T09:15:25.443Z,19.80
2018-04-25T09:17:53.405Z,19.80
2018-04-25T09:20:20.570Z,19.80
2018-04-25T09:22:47.640Z,20.00
2018-04-25T09:25:14.641Z,20.00
2018-04-25T09:27:42.437Z,20.10
2018-04-25T09:30:09.449Z,20.10
2018-04-25T09:32:37.211Z,20.40
2018-04-25T09:35:04.217Z,20.30
2018-04-25T09:37:31.231Z,20.50
2018-04-25T09:39:59.050Z,20.80
2018-04-25T09:42:26.349Z,20.80
2018-04-25T09:44:53.633Z,21.00
2018-04-25T09:47:20.680Z,21.00
2018-04-25T09:49:47.717Z,21.10
2018-04-25T09:52:14.716Z,21.20
2018-04-25T09:54:42.749Z,21.40
2018-04-25T09:57:10.544Z,21.50
2018-04-25T09:59:37.560Z,21.50
2018-04-25T10:02:04.846Z,21.70
2018-04-25T10:04:32.737Z,21.90
2018-04-25T10:06:59.793Z,21.90
2018-04-25T10:09:26.797Z,22.00
2018-04-25T10:11:53.816Z,22.10
2018-04-25T10:14:21.081Z,22.20
2018-04-25T10:16:48.863Z,22.40
2018-04-25T10:19:16.765Z,22.50
2018-04-25T10:21:43.797Z,22.50
2018-04-25T10:24:11.036Z,22.70
2018-04-25T10:26:38.188Z,22.80
2018-04-25T10:29:05.172Z,22.90
2018-04-25T10:31:32.423Z,23.00
2018-04-25T10:33:59.585Z,23.20
2018-04-25T10:36:26.631Z,23.20
2018-04-25T10:38:53.913Z,23.30
2018-04-25T10:41:21.189Z,23.40
2018-04-25T10:43:48.269Z,23.50
2018-04-25T10:46:15.257Z,23.60
2018-04-25T10:48:42.528Z,23.70
2018-04-25T10:51:10.281Z,23.90
2018-04-25T10:53:37.352Z,24.00
2018-04-25T10:56:04.628Z,24.10
2018-04-25T10:58:31.812Z,24.10
2018-04-25T11:00:58.871Z,24.20
2018-04-25T11:03:25.867Z,24.30
2018-04-25T11:05:53.600Z,24.60
2018-04-25T11:08:20.649Z,24.60
2018-04-25T11:10:47.864Z,24.60
2018-04-25T11:13:15.717Z,24.90
2018-04-25T11:15:43.760Z,25.00
2018-04-25T11:18:10.813Z,25.00
2018-04-25T11:20:38.045Z,25.10
2018-04-25T11:23:05.204Z,25.30
2018-04-25T11:25:32.272Z,25.40
2018-04-25T11:28:00.044Z,25.80
2018-04-25T11:30:27.232Z,25.70
2018-04-25T11:32:54.493Z,25.90
2018-04-25T11:35:22.360Z,26.10
2018-04-25T11:37:49.515Z,26.10
2018-04-25T11:40:16.613Z,26.30
2018-04-25T11:42:43.648Z,26.40
2018-04-25T11:45:11.417Z,26.70
2018-04-25T11:47:38.425Z,26.70
2018-04-25T11:50:05.497Z,26.70
2018-04-25T11:52:33.607Z,27.20
2018-04-25T11:55:00.905Z,27.10
2018-04-25T11:57:28.072Z,27.40
2018-04-25T11:59:55.337Z,27.70
2018-04-25T12:02:22.609Z,27.70
2018-04-25T12:04:50.541Z,28.30
2018-04-25T12:07:18.469Z,28.80
2018-04-25T12:10:01.159Z,29.30
2018-04-25T12:12:28.205Z,29.30
2018-04-25T12:14:55.217Z,29.60
2018-04-25T12:17:22.984Z,30.10
2018-04-25T12:19:50.207Z,30.10
2018-04-25T12:22:17.372Z,30.20
2018-04-25T12:24:44.641Z,30.50
2018-04-25T12:27:11.636Z,30.70
2018-04-25T12:29:39.038Z,30.90
2018-04-25T12:32:06.204Z,31.00
2018-04-25T12:34:33.343Z,30.90
2018-04-25T12:37:00.390Z,31.40
2018-04-25T12:39:28.144Z,32.10
2018-04-25T12:41:55.904Z,32.10
2018-04-25T12:44:23.188Z,32.10
2018-04-25T12:46:50.208Z,32.30
2018-04-25T12:49:18.247Z,32.10
2018-04-25T12:51:45.638Z,32.10
2018-04-25T12:54:12.833Z,32.20
2018-04-25T12:56:39.868Z,32.00
2018-04-25T12:59:06.880Z,32.40
2018-04-25T13:01:34.694Z,32.30
2018-04-25T13:04:01.945Z,32.30
2018-04-25T13:06:28.983Z,32.20
2018-04-25T13:08:55.991Z,32.20
2018-04-25T13:11:24.024Z,32.80
2018-04-25T13:13:51.164Z,32.70
2018-04-25T13:16:18.169Z,32.50
2018-04-25T13:18:45.924Z,32.50
2018-04-25T13:21:13.694Z,32.60
2018-04-25T13:23:40.683Z,32.70
2018-04-25T13:26:07.961Z,32.90
2018-04-25T13:28:35.123Z,33.10
2018-04-25T13:31:02.155Z,33.10
2018-04-25T13:33:29.181Z,33.10
2018-04-25T13:35:56.201Z,32.90
2018-04-25T13:38:23.500Z,33.00
2018-04-25T13:40:51.436Z,32.60
2018-04-25T13:43:18.448Z,32.50
2018-04-25T13:45:45.447Z,32.60
2018-04-25T13:48:12.474Z,32.70
2018-04-25T13:50:39.509Z,32.90
2018-04-25T13:53:06.820Z,33.10
2018-04-25T13:55:34.110Z,33.30
2018-04-25T13:58:01.144Z,33.10
2018-04-25T14:00:28.405Z,32.60
2018-04-25T14:02:55.479Z,32.50
2018-04-25T14:05:22.745Z,32.50
2018-04-25T14:07:49.901Z,32.40
2018-04-25T14:10:17.948Z,32.70
2018-04-25T14:12:44.980Z,32.70
2018-04-25T14:15:13.097Z,33.00
2018-04-25T14:17:40.449Z,33.00
2018-04-25T14:20:07.599Z,33.10
2018-04-25T14:22:34.703Z,32.70
2018-04-25T14:25:01.919Z,32.50
2018-04-25T14:27:28.975Z,32.20
2018-04-25T14:29:56.312Z,32.40
2018-04-25T14:32:24.093Z,32.30
2018-04-25T14:34:51.264Z,32.30
2018-04-25T14:37:18.380Z,32.30
2018-04-25T14:39:46.148Z,31.60
2018-04-25T14:42:13.172Z,31.60
2018-04-25T14:44:40.169Z,31.30
2018-04-25T14:47:08.156Z,31.20
2018-04-25T14:49:35.332Z,31.20
2018-04-25T14:52:02.555Z,31.10
2018-04-25T14:54:29.624Z,30.80
2018-04-25T14:56:56.635Z,30.70
2018-04-25T14:59:24.636Z,30.50
2018-04-25T15:01:51.748Z,30.40
2018-04-25T15:04:19.728Z,30.20
2018-04-25T15:06:46.884Z,30.10
2018-04-25T15:09:13.887Z,30.00
2018-04-25T15:11:41.641Z,29.50
2018-04-25T15:14:08.688Z,29.50
2018-04-25T15:16:35.872Z,29.20
2018-04-25T15:19:02.934Z,29.00
2018-04-25T15:21:30.016Z,28.80
2018-04-25T15:23:58.022Z,28.60
2018-04-25T15:26:26.016Z,28.50
2018-04-25T15:28:54.085Z,28.40
2018-04-25T15:31:21.163Z,28.40
2018-04-25T15:33:48.984Z,28.20
2018-04-25T15:36:16.292Z,28.20
2018-04-25T15:38:43.307Z,28.20
2018-04-25T15:41:11.498Z,27.90
2018-04-25T15:43:38.520Z,27.90
2018-04-25T15:46:06.464Z,27.60
2018-04-25T15:48:33.672Z,27.60
2018-04-25T15:51:00.777Z,27.60
2018-04-25T15:53:28.604Z,27.50
2018-04-25T15:55:55.985Z,27.50
2018-04-25T15:58:23.764Z,27.40
2018-04-25T16:00:51.008Z,27.40
2018-04-25T16:03:18.824Z,27.30
2018-04-25T16:05:46.049Z,27.30
2018-04-25T16:08:13.332Z,27.30
2018-04-25T16:10:40.392Z,27.10
2018-04-25T16:13:07.434Z,27.10
2018-04-25T16:15:34.594Z,27.00
2018-04-25T16:18:01.744Z,27.00
2018-04-25T16:20:29.004Z,27.00
2018-04-25T16:22:56.194Z,26.90
2018-04-25T16:25:24.107Z,26.80
2018-04-25T16:27:51.159Z,26.70
2018-04-25T16:30:18.201Z,26.70
2018-04-25T16:32:45.233Z,26.70
2018-04-25T16:35:12.639Z,26.70
2018-04-25T16:37:39.970Z,26.60
2018-04-25T16:40:07.034Z,26.50
2018-04-25T16:42:34.147Z,26.50
2018-04-25T16:45:01.180Z,26.50
2018-04-25T16:47:28.971Z,26.40
2018-04-25T16:49:55.992Z,26.30
2018-04-25T16:52:23.715Z,26.30
2018-04-25T16:54:50.893Z,26.20
2018-04-25T16:57:18.109Z,26.20
2018-04-25T16:59:45.381Z,26.10
2018-04-25T17:02:12.630Z,26.10
2018-04-25T17:04:40.383Z,25.90
2018-04-25T17:07:07.595Z,25.90
2018-04-25T17:09:34.637Z,25.90
2018-04-25T17:12:01.892Z,25.80
2018-04-25T17:14:29.033Z,25.70
2018-04-25T17:16:56.027Z,25.60
2018-04-25T17:19:23.266Z,25.60
2018-04-25T17:21:50.445Z,25.50
2018-04-25T17:24:18.400Z,25.40
2018-04-25T17:26:45.493Z,25.40
2018-04-25T17:29:12.860Z,25.30
2018-04-25T17:31:40.022Z,25.30
2018-04-25T17:34:07.060Z,25.20
2018-04-25T17:36:34.072Z,25.20
2018-04-25T17:39:01.880Z,25.00
2018-04-25T17:41:28.882Z,25.00
2018-04-25T17:43:56.241Z,24.80
2018-04-25T17:46:23.418Z,24.70
2018-04-25T17:48:50.602Z,24.60
2018-04-25T17:51:17.672Z,24.40
2018-04-25T17:53:45.049Z,24.30
2018-04-25T17:56:12.351Z,24.00
2018-04-25T17:58:39.591Z,23.90
2018-04-25T18:01:06.595Z,23.70
2018-04-25T18:03:34.361Z,23.50
2018-04-25T18:06:05.430Z,23.50
2018-04-25T18:08:32.444Z,23.30
2018-04-25T18:11:00.728Z,23.00
2018-04-25T18:13:28.810Z,22.80
2018-04-25T18:15:56.644Z,22.70
2018-04-25T18:18:23.642Z,22.70
2018-04-25T18:20:50.800Z,22.60
2018-04-25T18:23:18.091Z,22.50
2018-04-25T18:25:45.311Z,22.40
2018-04-25T18:28:12.321Z,22.20
2018-04-25T18:30:39.609Z,22.10
2018-04-25T18:33:07.480Z,21.90
2018-04-25T18:35:34.740Z,21.90
2018-04-25T18:38:01.912Z,21.70
2018-04-25T18:40:29.723Z,21.50
2018-04-25T18:42:56.799Z,21.50
2018-04-25T18:45:23.855Z,21.40
2018-04-25T18:47:51.051Z,21.30
2018-04-25T18:50:18.589Z,21.20
2018-04-25T18:52:45.677Z,21.20
2018-04-25T18:55:12.989Z,21.10
2018-04-25T18:57:40.073Z,21.10
2018-04-25T19:00:07.232Z,21.00
2018-04-25T19:02:34.793Z,20.90
2018-04-25T19:05:01.913Z,20.80
2018-04-25T19:07:29.887Z,20.60
2018-04-25T19:09:57.994Z,20.50
2018-04-25T19:12:25.084Z,20.40
2018-04-25T19:14:52.412Z,20.40
2018-04-25T19:17:19.740Z,20.40
2018-04-25T19:19:47.652Z,20.20
2018-04-25T19:22:14.742Z,20.20
2018-04-25T19:24:42.019Z,20.00
2018-04-25T19:27:09.123Z,20.00
2018-04-25T19:29:36.828Z,20.00
2018-04-25T19:32:04.208Z,19.90
2018-04-25T19:34:32.012Z,19.80
2018-04-25T19:37:00.028Z,19.70
2018-04-25T19:39:27.233Z,19.70
2018-04-25T19:41:54.283Z,19.70
2018-04-25T19:44:21.504Z,19.60
2018-04-25T19:46:48.761Z,19.50
2018-04-25T19:49:16.797Z,19.40
2018-04-25T19:51:44.034Z,19.30
2018-04-25T19:54:11.189Z,19.30
2018-04-25T19:56:39.379Z,19.20
2018-04-25T19:59:07.187Z,19.00
2018-04-25T20:01:35.269Z,19.00
2018-04-25T20:04:04.268Z,19.00
2018-04-25T20:06:31.725Z,19.00
2018-04-25T20:08:59.109Z,19.00
2018-04-25T20:11:26.932Z,18.90
2018-04-25T20:13:54.189Z,18.80
2018-04-25T20:16:21.372Z,18.80
2018-04-25T20:18:49.309Z,18.80
2018-04-25T20:21:16.561Z,18.80
2018-04-25T20:23:43.582Z,18.80
2018-04-25T20:26:10.804Z,18.70
2018-04-25T20:28:38.113Z,18.70
2018-04-25T20:31:05.803Z,18.70
2018-04-25T20:33:32.968Z,18.70
2018-04-25T20:35:59.988Z,18.70
2018-04-25T20:38:27.728Z,18.70
2018-04-25T20:40:54.738Z,18.70
2018-04-25T20:43:21.775Z,18.70
2018-04-25T20:45:48.820Z,18.70
2018-04-25T20:48:15.919Z,18.70
2018-04-25T20:50:43.094Z,18.70
2018-04-25T20:53:10.664Z,18.70
2018-04-25T20:55:37.788Z,18.70
2018-04-25T20:58:04.957Z,18.70
2018-04-25T21:00:32.019Z,18.70
2018-04-25T21:02:59.119Z,18.70
2018-04-25T21:05:26.129Z,18.80
2018-04-25T21:07:53.121Z,18.80
2018-04-25T21:10:20.141Z,18.80
2018-04-25T21:12:47.368Z,18.80
2018-04-25T21:15:15.164Z,18.80
2018-04-25T21:17:42.180Z,18.80
2018-04-25T21:20:09.360Z,18.80
2018-04-25T21:22:36.668Z,18.80
2018-04-25T21:25:03.744Z,18.80
2018-04-25T21:27:30.765Z,18.70
2018-04-25T21:29:57.813Z,18.60
2018-04-25T21:32:24.973Z,18.50
2018-04-25T21:34:52.226Z,18.40
2018-04-25T21:37:19.222Z,18.40
2018-04-25T21:39:46.991Z,18.40
2018-04-25T21:42:14.732Z,18.30
2018-04-25T21:44:41.807Z,18.30
2018-04-25T21:47:09.553Z,18.10
2018-04-25T21:49:36.583Z,18.10
2018-04-25T21:52:03.636Z,18.10
2018-04-25T21:54:30.694Z,18.00
2018-04-25T21:56:57.715Z,18.00
2018-04-25T21:59:24.737Z,17.90
2018-04-25T22:01:51.746Z,17.90
2018-04-25T22:04:19.500Z,17.80
2018-04-25T22:06:46.509Z,17.80
2018-04-25T22:09:13.516Z,17.70
2018-04-25T22:11:40.543Z,17.70
2018-04-25T22:14:08.299Z,17.60
2018-04-25T22:16:35.317Z,17.60
2018-04-25T22:19:02.296Z,17.60
2018-04-25T22:21:30.055Z,17.50
2018-04-25T22:23:57.061Z,17.50
2018-04-25T22:26:24.055Z,17.50
2018-04-25T22:28:51.080Z,17.40
2018-04-25T22:31:18.090Z,17.40
2018-04-25T22:33:45.111Z,17.30
2018-04-25T22:36:12.105Z,17.30
2018-04-25T22:38:39.842Z,17.20
2018-04-25T22:41:06.947Z,17.20
2018-04-25T22:43:33.889Z,17.10
2018-04-25T22:46:00.896Z,17.00
2018-04-25T22:48:28.657Z,17.00
2018-04-25T22:50:55.665Z,17.00
2018-04-25T22:53:22.705Z,16.90
2018-04-25T22:55:49.699Z,16.90
2018-04-25T22:58:16.684Z,16.80
2018-04-25T23:00:43.695Z,16.80
2018-04-25T23:03:11.461Z,16.80
2018-04-25T23:05:39.212Z,16.80
2018-04-25T23:08:06.273Z,16.80
2018-04-25T23:10:33.258Z,16.80
2018-04-25T23:13:00.249Z,16.80
2018-04-25T23:15:27.248Z,16.80
2018-04-25T23:17:54.300Z,16.80
2018-04-25T23:20:21.304Z,16.70
2018-04-25T23:22:49.055Z,16.60
2018-04-25T23:25:16.086Z,16.60
2018-04-25T23:27:43.071Z,16.70
2018-04-25T23:30:10.195Z,16.70
2018-04-25T23:32:37.183Z,16.60
2018-04-25T23:35:04.180Z,16.60
2018-04-25T23:37:31.197Z,16.60
2018-04-25T23:39:58.177Z,16.60
2018-04-25T23:42:25.243Z,16.60
2018-04-25T23:44:52.264Z,16.60
2018-04-25T23:47:19.268Z,16.70
2018-04-25T23:49:46.313Z,16.60
2018-04-25T23:52:13.340Z,16.70
2018-04-25T23:54:40.561Z,16.70
2018-04-25T23:57:07.548Z,16.70
2018-04-25T23:59:35.251Z,16.80
